Time;durP1;ratioP1;P1;durP2;ratioP2;P2;SDS_P1;SDS_P2;PMS_P1;PMS_P2;Temp;Humidity;BMP_temperature;BMP_pressure;BME280_temperature;BME280_humidity;BME280_pressure;Samples;Min_cycle;Max_cycle;Signal;HPM_P1;HPM_P2
2022/10/21 00:02:23;;;;;;;28.73;21.70;;;;;;;13.09;100.00;99764.59;5018639;28;20490;-82
2022/10/21 00:04:50;;;;;;;37.03;21.37;;;;;;;13.05;100.00;99774.00;5002868;28;20475;-82
2022/10/21 00:07:17;;;;;;;29.20;20.90;;;;;;;12.98;100.00;99766.63;5002005;28;21088;-81
2022/10/21 00:09:43;;;;;;;32.97;19.90;;;;;;;12.84;100.00;99763.78;5002924;28;20486;-82
2022/10/21 00:12:10;;;;;;;33.60;23.00;;;;;;;12.68;100.00;99760.06;5018723;28;20526;-81
2022/10/21 00:14:36;;;;;;;31.67;21.37;;;;;;;12.63;100.00;99763.25;5008507;28;20955;-82
2022/10/21 00:17:04;;;;;;;32.33;22.10;;;;;;;12.50;100.00;99762.91;5020362;28;20506;-82
2022/10/21 00:19:31;;;;;;;30.80;20.07;;;;;;;12.40;100.00;99771.09;5021872;28;20435;-81
2022/10/21 00:21:57;;;;;;;36.03;23.47;;;;;;;12.30;100.00;99769.56;5021130;28;21072;-81
2022/10/21 00:24:24;;;;;;;34.87;22.03;;;;;;;12.19;100.00;99768.03;5021145;28;20524;-81
2022/10/21 00:26:51;;;;;;;30.33;22.47;;;;;;;12.17;100.00;99761.97;5005750;28;20551;-80
2022/10/21 00:29:17;;;;;;;34.57;22.20;;;;;;;12.15;100.00;99766.66;5006732;28;20502;-80
2022/10/21 00:31:44;;;;;;;31.57;20.10;;;;;;;12.42;100.00;99761.03;5013019;28;20543;-80
2022/10/21 00:34:12;;;;;;;28.43;18.80;;;;;;;12.71;100.00;99759.75;5009469;28;20888;-81
2022/10/21 00:36:38;;;;;;;29.20;18.30;;;;;;;12.91;100.00;99762.91;5023362;28;20510;-80
2022/10/21 00:39:05;;;;;;;29.67;19.40;;;;;;;13.13;100.00;99753.34;5020437;28;20463;-83
2022/10/21 00:41:32;;;;;;;28.20;18.03;;;;;;;13.26;100.00;99752.00;5024276;28;20514;-82
2022/10/21 00:44:00;;;;;;;28.13;17.77;;;;;;;13.33;100.00;99750.34;5013644;28;20479;-83
2022/10/21 00:46:32;;;;;;;26.40;17.80;;;;;;;13.41;100.00;99749.50;5011436;28;20513;-82
2022/10/21 00:49:01;;;;;;;26.17;17.67;;;;;;;13.58;100.00;99747.63;5025176;28;20545;-82
2022/10/21 00:51:32;;;;;;;27.10;19.00;;;;;;;13.64;100.00;99747.72;5022337;28;20486;-82
2022/10/21 00:54:00;;;;;;;24.73;17.33;;;;;;;13.62;100.00;99749.75;4987450;28;20536;-82
2022/10/21 00:56:28;;;;;;;21.10;17.40;;;;;;;13.65;100.00;99745.91;5014699;28;20519;-82
2022/10/21 00:58:57;;;;;;;30.27;18.03;;;;;;;13.75;100.00;99735.81;5022884;28;20542;-80
2022/10/21 01:01:24;;;;;;;23.07;16.67;;;;;;;13.67;99.96;99725.91;5004375;28;20530;-82
2022/10/21 01:03:51;;;;;;;23.93;18.10;;;;;;;13.65;99.46;99725.25;5005348;28;20440;-82
2022/10/21 01:06:20;;;;;;;25.03;17.50;;;;;;;13.68;100.00;99721.34;5022976;28;20482;-82
2022/10/21 01:08:48;;;;;;;25.90;18.30;;;;;;;13.68;100.00;99716.00;5015691;28;20578;-83
2022/10/21 01:11:17;;;;;;;20.87;15.90;;;;;;;13.70;100.00;99716.69;5016384;28;20572;-83
2022/10/21 01:13:54;;;;;;;22.63;17.10;;;;;;;13.70;100.00;99708.63;5008095;28;20909;-83
2022/10/21 01:16:23;;;;;;;24.70;17.20;;;;;;;13.72;100.00;99703.91;5006001;28;20544;-83
2022/10/21 01:18:55;;;;;;;24.00;16.73;;;;;;;13.77;100.00;99709.59;5014663;28;20487;-82
2022/10/21 01:21:29;;;;;;;22.73;17.00;;;;;;;13.80;100.00;99705.69;5014050;28;21111;-83
2022/10/21 01:24:42;;;;;;;20.40;16.10;;;;;;;13.87;99.93;99702.16;5010976;28;20501;-83
2022/10/21 01:27:21;;;;;;;25.43;16.00;;;;;;;13.92;99.71;99691.72;5018822;28;20505;-82
2022/10/21 01:30:36;;;;;;;22.20;15.77;;;;;;;13.90;99.61;99676.78;5020793;28;20542;-83
2022/10/21 01:33:11;;;;;;;20.17;15.20;;;;;;;13.89;99.62;99686.69;4921253;29;20491;-83
2022/10/21 01:35:42;;;;;;;23.87;15.93;;;;;;;13.99;99.36;99680.25;4914104;29;20605;-84
2022/10/21 01:38:13;;;;;;;24.73;15.20;;;;;;;13.86;99.15;99675.47;4944832;29;20487;-83
2022/10/21 01:40:45;;;;;;;21.13;14.70;;;;;;;13.87;99.81;99669.06;4943142;29;20478;-83
2022/10/21 01:43:17;;;;;;;18.07;15.00;;;;;;;13.89;99.45;99675.94;4960477;29;20489;-82
2022/10/21 01:45:48;;;;;;;20.67;16.47;;;;;;;13.88;99.46;99665.38;4957773;28;20546;-82
2022/10/21 01:48:18;;;;;;;23.10;15.93;;;;;;;13.91;99.50;99667.72;4945064;29;20522;-82
2022/10/21 01:50:47;;;;;;;23.10;14.33;;;;;;;13.81;99.83;99667.91;4944778;29;20514;-83
2022/10/21 01:53:16;;;;;;;18.20;14.40;;;;;;;13.72;100.00;99659.06;4954863;28;20474;-83
2022/10/21 01:55:43;;;;;;;22.23;16.07;;;;;;;13.73;100.00;99659.88;4961579;28;20860;-83
2022/10/21 01:58:14;;;;;;;25.63;16.50;;;;;;;13.63;100.00;99657.44;4954814;29;20542;-84
2022/10/21 02:00:41;;;;;;;27.60;18.50;;;;;;;13.53;100.00;99659.50;4951094;28;20949;-83
2022/10/21 02:03:11;;;;;;;26.63;18.10;;;;;;;13.40;100.00;99654.66;4973185;28;20487;-83
2022/10/21 02:05:38;;;;;;;36.80;21.40;;;;;;;13.29;100.00;99644.28;4999100;28;21025;-82
2022/10/21 02:08:05;;;;;;;29.77;20.53;;;;;;;13.21;100.00;99638.94;5004910;28;20535;-81
2022/10/21 02:10:35;;;;;;;30.43;20.97;;;;;;;13.16;100.00;99644.84;5021677;28;20526;-83
2022/10/21 02:13:04;;;;;;;35.70;21.53;;;;;;;13.05;100.00;99647.88;5022000;28;20486;-83
2022/10/21 02:15:32;;;;;;;29.27;21.50;;;;;;;13.06;100.00;99652.25;5017844;28;20571;-82
2022/10/21 02:18:03;;;;;;;31.70;20.43;;;;;;;13.10;100.00;99646.34;5003680;28;20479;-82
2022/10/21 02:20:34;;;;;;;30.80;19.60;;;;;;;13.17;100.00;99663.44;4991254;28;20554;-82
2022/10/21 02:23:01;;;;;;;30.17;22.27;;;;;;;13.12;100.00;99655.06;5004694;28;20483;-83
2022/10/21 02:25:30;;;;;;;28.40;21.20;;;;;;;13.13;100.00;99662.09;5010403;28;20926;-82
2022/10/21 02:27:56;;;;;;;29.80;22.47;;;;;;;13.14;100.00;99666.47;5012935;28;20488;-83
2022/10/21 02:30:23;;;;;;;32.83;22.30;;;;;;;13.22;100.00;99656.72;5010225;28;20558;-83
2022/10/21 02:32:54;;;;;;;29.93;21.07;;;;;;;13.20;100.00;99662.25;5022855;28;20573;-83
2022/10/21 02:35:28;;;;;;;33.30;22.83;;;;;;;13.13;100.00;99651.38;5015118;28;20460;-83
2022/10/21 02:38:00;;;;;;;28.90;22.17;;;;;;;13.15;100.00;99654.72;5004609;28;20540;-83
2022/10/21 02:40:31;;;;;;;36.53;21.57;;;;;;;13.13;100.00;99653.22;5011964;28;20517;-83
2022/10/21 02:43:00;;;;;;;38.00;21.67;;;;;;;13.12;100.00;99644.34;5005769;28;20459;-83
2022/10/21 02:45:27;;;;;;;28.30;21.83;;;;;;;13.15;100.00;99638.59;5003543;28;20491;-83
2022/10/21 02:47:54;;;;;;;26.63;20.67;;;;;;;13.08;100.00;99629.56;5003126;28;20811;-83
2022/10/21 02:50:21;;;;;;;27.60;20.63;;;;;;;13.19;100.00;99625.69;5016067;28;20490;-83
2022/10/21 02:52:47;;;;;;;29.87;19.60;;;;;;;13.21;100.00;99628.19;5022028;28;20835;-83
2022/10/21 02:55:16;;;;;;;28.67;19.43;;;;;;;13.28;100.00;99629.16;5007452;28;20599;-84
2022/10/21 02:57:43;;;;;;;26.57;18.20;;;;;;;13.31;100.00;99627.00;5004944;28;20504;-83
2022/10/21 03:00:10;;;;;;;25.10;18.73;;;;;;;13.46;100.00;99618.25;5017055;28;20487;-83
2022/10/21 03:02:37;;;;;;;33.17;19.90;;;;;;;13.52;100.00;99615.69;5006910;28;20447;-83
2022/10/21 03:05:04;;;;;;;26.17;19.93;;;;;;;13.54;100.00;99607.44;5020740;28;20482;-83
2022/10/21 03:07:31;;;;;;;26.40;19.20;;;;;;;13.54;100.00;99604.75;5007459;28;20588;-83
2022/10/21 03:09:58;;;;;;;25.23;18.63;;;;;;;13.54;100.00;99615.50;5012760;28;20474;-83
2022/10/21 03:12:26;;;;;;;26.17;18.97;;;;;;;13.59;100.00;99598.88;5006596;28;20511;-82
2022/10/21 03:14:52;;;;;;;26.47;19.40;;;;;;;13.56;100.00;99602.75;5005296;28;20467;-83
2022/10/21 03:17:19;;;;;;;32.57;21.30;;;;;;;13.61;100.00;99607.56;5009323;28;20652;-83
2022/10/21 03:19:45;;;;;;;29.53;20.60;;;;;;;13.63;100.00;99610.94;5003877;28;20479;-82
2022/10/21 03:22:12;;;;;;;27.13;19.53;;;;;;;13.55;100.00;99601.06;5015466;28;20542;-82
2022/10/21 03:24:39;;;;;;;31.00;20.10;;;;;;;13.48;100.00;99608.16;5021280;28;20478;-82
2022/10/21 03:27:05;;;;;;;31.53;20.43;;;;;;;13.37;100.00;99599.47;5019697;28;20908;-82
2022/10/21 03:29:33;;;;;;;32.23;20.90;;;;;;;13.37;100.00;99599.47;5003226;28;20483;-81
2022/10/21 03:32:00;;;;;;;30.03;20.10;;;;;;;13.29;100.00;99598.63;5015419;28;20587;-82
2022/10/21 03:34:26;;;;;;;32.77;19.70;;;;;;;13.16;100.00;99596.53;5002969;28;20854;-82
2022/10/21 03:36:53;;;;;;;30.63;21.53;;;;;;;13.14;100.00;99596.69;5003091;28;20559;-82
2022/10/21 03:39:20;;;;;;;28.30;19.43;;;;;;;13.14;100.00;99574.38;5013184;28;20495;-83
2022/10/21 03:41:46;;;;;;;27.77;22.03;;;;;;;13.13;100.00;99578.91;5003318;28;20514;-82
2022/10/21 03:44:13;;;;;;;32.53;21.07;;;;;;;13.14;100.00;99583.28;5003073;28;20551;-83
2022/10/21 03:46:41;;;;;;;29.23;20.83;;;;;;;13.10;100.00;99591.84;5001743;28;21080;-82
2022/10/21 03:49:09;;;;;;;31.13;22.90;;;;;;;13.09;100.00;99591.00;5003808;28;20471;-83
2022/10/21 03:51:35;;;;;;;31.43;23.03;;;;;;;13.15;100.00;99584.09;5008408;28;20498;-84
2022/10/21 03:54:02;;;;;;;34.03;23.93;;;;;;;13.11;100.00;99594.34;5001563;28;20866;-83
2022/10/21 03:56:28;;;;;;;36.57;22.63;;;;;;;13.15;100.00;99587.59;5013384;28;20503;-83
2022/10/21 03:58:55;;;;;;;32.93;22.87;;;;;;;13.19;100.00;99586.28;5019518;28;20443;-82
2022/10/21 04:01:22;;;;;;;36.20;22.90;;;;;;;13.14;100.00;99601.19;5024399;28;20558;-83
2022/10/21 04:03:50;;;;;;;35.63;23.23;;;;;;;13.18;100.00;99579.22;5006780;28;20546;-82
2022/10/21 04:06:16;;;;;;;41.00;23.40;;;;;;;13.22;100.00;99584.25;5007880;28;20504;-82
2022/10/21 04:08:43;;;;;;;34.77;21.70;;;;;;;13.20;100.00;99581.72;5024321;28;20507;-82
2022/10/21 04:11:09;;;;;;;41.43;24.90;;;;;;;13.15;100.00;99576.03;5011536;28;20548;-82
2022/10/21 04:13:36;;;;;;;32.90;21.43;;;;;;;13.16;100.00;99577.72;5021394;28;20486;-82
2022/10/21 04:16:05;;;;;;;33.53;22.77;;;;;;;13.11;100.00;99575.56;5016683;28;20488;-82
2022/10/21 04:18:31;;;;;;;34.50;22.53;;;;;;;13.00;100.00;99575.91;5005817;28;20459;-83
2022/10/21 04:21:00;;;;;;;32.40;20.77;;;;;;;13.06;100.00;99566.38;5020696;28;20497;-85
2022/10/21 04:23:26;;;;;;;28.87;20.43;;;;;;;13.14;100.00;99569.84;5005128;28;20483;-84
2022/10/21 04:25:53;;;;;;;29.83;19.70;;;;;;;13.05;100.00;99565.50;5008153;28;20583;-83
2022/10/21 04:28:19;;;;;;;28.30;19.43;;;;;;;13.05;100.00;99564.69;5011562;28;20540;-81
2022/10/21 04:30:46;;;;;;;32.67;21.30;;;;;;;13.07;100.00;99562.66;5012015;28;20477;-82
2022/10/21 04:33:12;;;;;;;32.60;21.20;;;;;;;13.12;100.00;99558.47;5009135;28;20951;-83
2022/10/21 04:35:39;;;;;;;28.13;20.60;;;;;;;13.07;100.00;99552.78;5004718;28;20475;-82
2022/10/21 04:38:07;;;;;;;27.33;20.60;;;;;;;13.04;100.00;99555.81;5013844;28;20470;-83
2022/10/21 04:40:34;;;;;;;27.00;18.90;;;;;;;13.11;100.00;99559.47;5003184;28;20483;-83
2022/10/21 04:43:01;;;;;;;27.13;19.23;;;;;;;13.12;100.00;99557.59;5005232;28;20455;-83
2022/10/21 04:45:27;;;;;;;29.57;19.17;;;;;;;12.99;100.00;99547.44;5012255;28;20486;-83
2022/10/21 04:47:54;;;;;;;33.13;20.50;;;;;;;13.02;100.00;99541.72;5023579;28;20519;-83
2022/10/21 04:50:20;;;;;;;27.33;20.20;;;;;;;13.02;100.00;99535.50;5022271;28;20517;-82
2022/10/21 04:52:47;;;;;;;33.50;23.70;;;;;;;12.93;100.00;99535.56;5007898;28;20478;-82
2022/10/21 04:55:15;;;;;;;32.57;21.07;;;;;;;12.82;100.00;99535.91;5003827;28;20499;-81
2022/10/21 04:57:42;;;;;;;28.37;20.60;;;;;;;12.82;100.00;99541.28;5022115;28;20483;-82
2022/10/21 05:00:10;;;;;;;30.40;20.60;;;;;;;12.72;100.00;99533.41;5012528;28;20485;-82
2022/10/21 05:02:36;;;;;;;33.43;24.03;;;;;;;12.69;100.00;99541.84;5021726;28;20448;-83
2022/10/21 05:05:03;;;;;;;29.70;21.00;;;;;;;12.69;100.00;99538.28;5023133;28;20515;-82
2022/10/21 05:07:30;;;;;;;31.50;22.50;;;;;;;12.66;100.00;99530.63;5005309;28;20909;-84
2022/10/21 05:09:56;;;;;;;31.53;20.77;;;;;;;12.55;100.00;99529.97;5016173;28;20506;-84
2022/10/21 05:12:24;;;;;;;30.27;20.50;;;;;;;12.51;100.00;99525.94;5011895;28;20510;-84
2022/10/21 05:14:51;;;;;;;30.43;20.80;;;;;;;12.42;100.00;99530.47;5020349;28;20458;-82
2022/10/21 05:17:18;;;;;;;33.03;21.00;;;;;;;12.36;100.00;99531.19;5019740;28;20515;-82
2022/10/21 05:19:44;;;;;;;26.97;19.17;;;;;;;12.38;100.00;99529.16;5004077;28;20436;-81
2022/10/21 05:22:12;;;;;;;28.03;20.43;;;;;;;12.41;100.00;99520.78;5020661;28;20475;-81
2022/10/21 05:24:38;;;;;;;28.00;18.93;;;;;;;12.47;100.00;99515.75;5013952;28;20516;-82
2022/10/21 05:27:05;;;;;;;28.77;19.30;;;;;;;12.56;100.00;99522.75;5022507;28;20761;-82
2022/10/21 05:29:33;;;;;;;30.87;20.87;;;;;;;12.48;100.00;99520.94;5014218;28;20459;-83
2022/10/21 05:31:59;;;;;;;31.77;20.60;;;;;;;12.53;100.00;99518.56;5005624;28;20488;-82
2022/10/21 05:34:26;;;;;;;26.80;18.47;;;;;;;12.51;100.00;99525.09;5005469;28;20491;-82
2022/10/21 05:36:53;;;;;;;24.43;17.97;;;;;;;12.49;100.00;99519.91;5010105;28;20995;-84
2022/10/21 05:39:19;;;;;;;25.73;18.03;;;;;;;12.56;100.00;99518.22;5019406;28;20508;-83
2022/10/21 05:41:46;;;;;;;27.83;19.80;;;;;;;12.63;100.00;99526.41;5005208;28;20516;-84
2022/10/21 05:44:12;;;;;;;26.90;18.23;;;;;;;12.62;100.00;99530.94;4993943;28;20464;-82
2022/10/21 05:46:40;;;;;;;24.57;17.00;;;;;;;12.69;100.00;99528.44;4992487;28;20511;-81
2022/10/21 05:49:07;;;;;;;29.70;18.70;;;;;;;12.67;100.00;99529.59;5004572;28;20475;-82
2022/10/21 05:51:34;;;;;;;25.67;16.90;;;;;;;12.71;100.00;99525.56;5004636;28;20507;-83
2022/10/21 05:54:02;;;;;;;23.10;17.57;;;;;;;12.69;100.00;99535.63;5003701;28;20817;-82
2022/10/21 05:56:29;;;;;;;25.30;16.97;;;;;;;12.75;100.00;99533.09;5005425;28;20543;-84
2022/10/21 05:58:55;;;;;;;26.83;18.00;;;;;;;12.69;100.00;99528.44;5022410;28;20531;-85
2022/10/21 06:01:22;;;;;;;24.83;20.30;;;;;;;12.67;100.00;99538.47;5022805;28;21068;-86
2022/10/21 06:03:50;;;;;;;29.50;23.77;;;;;;;12.63;100.00;99527.25;5021162;28;20487;-87
2022/10/21 06:06:18;;;;;;;33.63;27.67;;;;;;;12.56;100.00;99533.47;5020911;28;20482;-87
2022/10/21 06:08:44;;;;;;;28.03;20.80;;;;;;;12.33;100.00;99528.00;5021126;28;20503;-84
2022/10/21 06:11:13;;;;;;;31.30;21.70;;;;;;;12.30;100.00;99534.53;5010943;28;20539;-84
2022/10/21 06:13:40;;;;;;;24.90;19.83;;;;;;;12.28;100.00;99530.34;4983953;28;20461;-84
2022/10/21 06:16:08;;;;;;;24.20;18.53;;;;;;;12.34;100.00;99535.88;5014752;28;20553;-84
2022/10/21 06:18:34;;;;;;;25.83;19.30;;;;;;;12.45;100.00;99534.69;5023032;28;20459;-84
2022/10/21 06:21:02;;;;;;;27.73;18.80;;;;;;;12.44;100.00;99523.09;5022430;28;20710;-84
2022/10/21 06:23:29;;;;;;;27.97;18.90;;;;;;;12.47;100.00;99529.16;5021654;28;20462;-84
2022/10/21 06:25:58;;;;;;;23.50;17.80;;;;;;;12.58;100.00;99521.56;5022578;28;20494;-84
2022/10/21 06:28:25;;;;;;;22.20;17.10;;;;;;;12.68;100.00;99525.91;5021811;28;20521;-84
2022/10/21 06:30:52;;;;;;;24.47;19.63;;;;;;;12.70;100.00;99527.41;5021006;28;20510;-84
2022/10/21 06:33:18;;;;;;;24.10;17.97;;;;;;;12.76;100.00;99528.56;5022625;28;20498;-84
2022/10/21 06:35:45;;;;;;;26.33;19.17;;;;;;;12.65;100.00;99524.38;5022824;28;20478;-84
2022/10/21 06:38:13;;;;;;;27.37;20.07;;;;;;;12.53;100.00;99521.22;5020342;28;20458;-84
2022/10/21 06:40:40;;;;;;;27.43;19.63;;;;;;;12.21;100.00;99528.34;5014851;28;20499;-84
2022/10/21 06:43:07;;;;;;;28.57;21.30;;;;;;;12.07;100.00;99533.56;4999634;28;20476;-84
2022/10/21 06:45:34;;;;;;;26.87;20.47;;;;;;;12.18;100.00;99534.03;4993873;28;20488;-83
2022/10/21 06:48:00;;;;;;;30.67;21.30;;;;;;;12.21;100.00;99541.72;5000825;28;20542;-83
2022/10/21 06:50:27;;;;;;;28.97;22.20;;;;;;;12.31;100.00;99552.28;5017015;28;20479;-83
2022/10/21 06:52:54;;;;;;;31.87;22.30;;;;;;;12.46;100.00;99540.88;4999287;28;20520;-83
2022/10/21 06:55:22;;;;;;;34.07;25.40;;;;;;;12.49;100.00;99545.91;4999912;28;20879;-83
2022/10/21 06:57:49;;;;;;;35.40;21.47;;;;;;;12.60;100.00;99545.53;5002135;28;20472;-83
2022/10/21 07:00:16;;;;;;;30.73;20.90;;;;;;;12.62;100.00;99548.91;5000820;28;20467;-83
2022/10/21 07:02:42;;;;;;;25.73;19.87;;;;;;;12.65;100.00;99553.06;5001853;28;20448;-82
2022/10/21 07:05:09;;;;;;;29.20;21.60;;;;;;;12.68;100.00;99558.91;5001656;28;20507;-83
2022/10/21 07:07:35;;;;;;;32.50;21.67;;;;;;;12.70;100.00;99562.25;5001483;28;20591;-81
2022/10/21 07:10:02;;;;;;;30.53;21.37;;;;;;;12.66;100.00;99558.25;5001477;28;20491;-82
2022/10/21 07:12:30;;;;;;;25.90;19.37;;;;;;;12.84;100.00;99557.22;5000738;28;20514;-82
2022/10/21 07:14:57;;;;;;;25.97;21.50;;;;;;;12.91;100.00;99552.81;5000379;28;20463;-83
2022/10/21 07:17:24;;;;;;;28.27;22.13;;;;;;;12.85;100.00;99559.72;5002125;28;20472;-83
2022/10/21 07:19:50;;;;;;;30.60;20.47;;;;;;;12.68;100.00;99563.47;5003245;28;20545;-83
2022/10/21 07:22:17;;;;;;;33.77;23.57;;;;;;;12.53;100.00;99557.94;5000296;28;20476;-83
2022/10/21 07:24:44;;;;;;;26.73;20.47;;;;;;;12.73;100.00;99556.56;5001114;28;20460;-82
2022/10/21 07:27:11;;;;;;;27.60;21.03;;;;;;;12.75;100.00;99559.91;5001058;28;20507;-82
2022/10/21 07:29:39;;;;;;;25.80;19.10;;;;;;;12.77;100.00;99554.38;5001090;28;20484;-83
2022/10/21 07:32:05;;;;;;;23.70;20.30;;;;;;;12.84;100.00;99558.03;5001710;28;20511;-83
2022/10/21 07:34:32;;;;;;;25.60;20.70;;;;;;;13.03;100.00;99561.34;5002396;28;20613;-83
2022/10/21 07:36:59;;;;;;;35.10;20.97;;;;;;;13.07;99.77;99560.81;5002130;28;20538;-83
2022/10/21 07:39:27;;;;;;;24.70;20.90;;;;;;;13.11;98.96;99553.25;5001673;28;20523;-83
2022/10/21 07:41:55;;;;;;;24.30;19.03;;;;;;;13.15;98.82;99558.09;5001599;28;20499;-83
2022/10/21 07:44:23;;;;;;;28.30;20.07;;;;;;;13.23;99.38;99559.91;5002396;28;20460;-83
2022/10/21 07:46:51;;;;;;;26.60;19.67;;;;;;;13.37;98.79;99561.06;5001900;28;20490;-83
2022/10/21 07:49:19;;;;;;;24.00;20.23;;;;;;;13.59;98.70;99572.00;5005851;28;20455;-83
2022/10/21 07:51:49;;;;;;;28.60;19.67;;;;;;;13.66;97.77;99562.22;5020389;28;20490;-83
2022/10/21 07:54:16;;;;;;;28.87;20.33;;;;;;;14.00;97.04;99569.88;5021344;28;20457;-83
2022/10/21 07:56:44;;;;;;;24.50;18.67;;;;;;;14.07;96.22;99575.38;5021537;28;21053;-83
2022/10/21 07:59:12;;;;;;;24.33;20.30;;;;;;;14.17;95.87;99569.78;5021166;28;20435;-83
2022/10/21 08:01:39;;;;;;;22.00;16.53;;;;;;;14.29;95.36;99568.31;5010304;28;20570;-83
2022/10/21 08:04:07;;;;;;;20.67;17.40;;;;;;;14.35;94.99;99570.25;4998472;28;20530;-83
2022/10/21 08:06:34;;;;;;;21.63;17.40;;;;;;;14.43;94.67;99572.88;5016528;28;20658;-83
2022/10/21 08:09:02;;;;;;;20.90;16.93;;;;;;;14.38;94.06;99577.16;5011414;28;20496;-82
2022/10/21 08:11:30;;;;;;;18.87;16.80;;;;;;;14.56;94.27;99563.34;4993976;28;20518;-83
2022/10/21 08:13:57;;;;;;;19.67;16.17;;;;;;;14.78;92.41;99558.97;4996155;28;20449;-83
2022/10/21 08:16:25;;;;;;;24.50;16.27;;;;;;;14.85;92.43;99565.28;4999076;28;20539;-83
2022/10/21 08:18:52;;;;;;;18.47;15.30;;;;;;;15.02;92.22;99572.13;5000385;28;20444;-83
2022/10/21 08:21:23;;;;;;;20.77;15.53;;;;;;;15.44;90.66;99567.91;4998515;28;20508;-83
2022/10/21 08:23:50;;;;;;;17.93;16.10;;;;;;;15.48;90.71;99568.34;4999905;28;20967;-83
2022/10/21 08:26:16;;;;;;;15.30;13.60;;;;;;;15.58;89.44;99566.19;5001294;28;20992;-83
2022/10/21 08:28:43;;;;;;;16.20;13.77;;;;;;;15.40;89.39;99555.84;4998857;28;21056;-83
2022/10/21 08:31:12;;;;;;;16.30;14.67;;;;;;;15.34;90.72;99556.59;5001006;28;20494;-84
2022/10/21 08:33:39;;;;;;;16.20;14.43;;;;;;;15.33;91.70;99557.63;5001543;28;20527;-83
2022/10/21 08:36:07;;;;;;;17.60;13.57;;;;;;;15.53;90.86;99551.63;5000907;28;20508;-82
2022/10/21 08:38:35;;;;;;;18.53;14.47;;;;;;;15.48;91.19;99557.56;5000744;28;20543;-82
2022/10/21 08:41:02;;;;;;;17.47;13.23;;;;;;;15.58;91.37;99560.81;5006200;28;20480;-83
2022/10/21 08:43:30;;;;;;;14.63;13.13;;;;;;;15.71;90.20;99557.44;5003588;28;20487;-82
2022/10/21 08:46:01;;;;;;;16.70;14.13;;;;;;;15.77;90.40;99558.56;5003544;28;20748;-83
2022/10/21 08:48:31;;;;;;;14.33;12.93;;;;;;;15.80;90.27;99561.69;5005889;28;20428;-82
2022/10/21 08:50:58;;;;;;;14.30;12.47;;;;;;;15.82;89.40;99562.34;5004065;28;20486;-83
2022/10/21 08:53:29;;;;;;;14.07;12.20;;;;;;;16.16;89.11;99559.94;5002317;28;20534;-83
2022/10/21 08:56:02;;;;;;;15.43;13.30;;;;;;;16.24;87.60;99551.72;5001643;28;20547;-83
2022/10/21 08:58:29;;;;;;;15.13;11.17;;;;;;;16.35;88.13;99558.47;5013763;28;20475;-83
2022/10/21 09:01:01;;;;;;;13.80;12.00;;;;;;;16.48;88.04;99553.16;5005316;28;20492;-83
2022/10/21 09:03:35;;;;;;;15.90;12.20;;;;;;;16.66;87.13;99552.66;5003353;28;20452;-83
2022/10/21 09:06:14;;;;;;;13.50;12.10;;;;;;;16.48;87.77;99563.97;5004353;28;20487;-83
2022/10/21 09:08:46;;;;;;;11.17;9.70;;;;;;;16.68;87.91;99566.81;5017550;28;20542;-83
2022/10/21 09:11:21;;;;;;;9.87;7.50;;;;;;;16.91;86.41;99561.19;5014746;28;21102;-83
2022/10/21 09:14:20;;;;;;;9.47;6.80;;;;;;;17.00;86.28;99555.63;5013344;28;20447;-83
2022/10/21 09:16:53;;;;;;;10.00;6.70;;;;;;;16.96;85.47;99557.88;5004172;28;20497;-83
2022/10/21 09:19:29;;;;;;;12.40;7.20;;;;;;;16.98;85.83;99555.81;5023066;28;20980;-83
2022/10/21 09:22:07;;;;;;;12.47;7.17;;;;;;;17.13;84.42;99558.38;5021724;28;20505;-82
2022/10/21 09:24:35;;;;;;;7.43;6.23;;;;;;;17.35;83.83;99556.41;5016271;28;20492;-83
2022/10/21 09:27:05;;;;;;;8.63;4.87;;;;;;;17.22;83.47;99554.47;5007270;28;20568;-82
2022/10/21 09:29:33;;;;;;;6.13;5.43;;;;;;;17.16;84.10;99557.97;5023212;28;20459;-83
2022/10/21 09:32:11;;;;;;;8.43;6.37;;;;;;;17.30;84.60;99561.56;5021535;28;20518;-83
2022/10/21 09:34:46;;;;;;;10.27;6.37;;;;;;;17.27;83.88;99564.66;5023280;28;20459;-82
2022/10/21 09:37:19;;;;;;;5.03;4.53;;;;;;;17.46;83.84;99566.63;5021058;28;20475;-83
2022/10/21 09:39:48;;;;;;;6.83;5.23;;;;;;;17.01;84.21;99566.22;5021280;28;20556;-82
2022/10/21 09:42:16;;;;;;;6.50;4.97;;;;;;;17.22;83.74;99554.47;5010101;28;20479;-83
2022/10/21 09:44:44;;;;;;;8.17;4.43;;;;;;;17.39;83.29;99559.53;5022559;28;20459;-83
2022/10/21 09:47:19;;;;;;;8.23;4.87;;;;;;;17.44;83.71;99560.56;5012462;28;20492;-83
2022/10/21 09:49:47;;;;;;;5.00;4.50;;;;;;;17.26;83.41;99557.63;5004247;28;20444;-83
2022/10/21 09:52:15;;;;;;;5.27;3.50;;;;;;;17.27;81.66;99560.13;5005915;28;21004;-83
2022/10/21 09:54:42;;;;;;;5.30;4.00;;;;;;;17.42;82.07;99562.66;5002415;28;20492;-82
2022/10/21 09:57:13;;;;;;;5.27;4.50;;;;;;;17.38;82.18;99557.88;5020376;28;20474;-83
2022/10/21 09:59:52;;;;;;;10.50;3.90;;;;;;;17.46;82.82;99560.38;5013068;28;20484;-82
2022/10/21 10:02:25;;;;;;;5.13;3.20;;;;;;;17.51;82.14;99552.50;5002102;28;20472;-83
2022/10/21 10:04:52;;;;;;;3.93;3.60;;;;;;;17.40;83.15;99556.63;5002902;28;20452;-83
2022/10/21 10:07:21;;;;;;;5.30;3.57;;;;;;;17.37;83.10;99556.19;5001934;28;20508;-83
2022/10/21 10:09:48;;;;;;;7.17;3.60;;;;;;;17.55;82.39;99561.03;5001771;28;20471;-83
2022/10/21 10:12:16;;;;;;;5.27;3.50;;;;;;;17.58;82.15;99566.84;5009624;28;20537;-83
2022/10/21 10:14:45;;;;;;;3.77;3.30;;;;;;;17.76;81.03;99578.97;5022965;28;20459;-83
2022/10/21 10:17:27;;;;;;;9.33;3.97;;;;;;;17.63;81.48;99572.50;5004908;28;20559;-83
2022/10/21 10:20:19;;;;;;;5.57;3.27;;;;;;;17.66;81.48;99568.56;5002699;28;20436;-83
2022/10/21 10:22:46;;;;;;;3.20;2.90;;;;;;;17.82;82.13;99567.34;4992308;28;20507;-83
2022/10/21 10:25:22;;;;;;;6.17;3.40;;;;;;;17.68;82.53;99561.91;5001719;28;20471;-83
2022/10/21 10:27:52;;;;;;;5.97;3.37;;;;;;;18.05;80.05;99565.16;5003653;28;20520;-83
2022/10/21 10:30:19;;;;;;;6.00;3.73;;;;;;;17.95;79.92;99567.41;5003635;28;20475;-83
2022/10/21 10:32:51;;;;;;;4.70;4.20;;;;;;;17.91;79.38;99565.31;5000553;28;20456;-83
2022/10/21 10:35:25;;;;;;;5.80;3.90;;;;;;;18.02;79.77;99564.72;5002585;28;20452;-83
2022/10/21 10:37:52;;;;;;;4.70;3.40;;;;;;;17.83;79.85;99567.16;5016891;28;20453;-83
2022/10/21 10:40:23;;;;;;;13.13;4.00;;;;;;;17.84;79.75;99559.88;5011158;28;20478;-82
2022/10/21 10:42:51;;;;;;;4.90;3.37;;;;;;;17.91;80.19;99568.84;5002507;28;20460;-81
2022/10/21 10:45:21;;;;;;;5.27;3.37;;;;;;;17.77;81.42;99564.44;5002240;28;20488;-83
2022/10/21 10:47:52;;;;;;;6.70;3.80;;;;;;;17.75;81.25;99569.22;5002359;28;20451;-82
2022/10/21 10:50:41;;;;;;;6.33;4.00;;;;;;;17.72;81.29;99562.31;5001897;28;20451;-82
2022/10/21 10:53:29;;;;;;;5.00;3.63;;;;;;;17.79;80.97;99556.94;4982319;28;20468;-82
2022/10/21 10:56:01;;;;;;;5.53;3.50;;;;;;;17.80;81.08;99564.03;5000901;28;20566;-81
2022/10/21 10:58:29;;;;;;;6.00;3.70;;;;;;;17.88;81.83;99564.69;5010841;28;20485;-81
2022/10/21 11:00:59;;;;;;;4.30;3.60;;;;;;;17.70;81.00;99570.63;5007566;28;20483;-82
2022/10/21 11:03:33;;;;;;;6.83;4.10;;;;;;;17.58;82.33;99566.03;5008157;28;20455;-83
2022/10/21 11:06:07;;;;;;;9.97;4.00;;;;;;;17.85;81.24;99561.53;5007592;28;20506;-84
2022/10/21 11:08:38;;;;;;;4.73;3.70;;;;;;;17.81;81.29;99562.97;4999061;28;20511;-84
2022/10/21 11:11:07;;;;;;;13.00;4.20;;;;;;;17.82;80.79;99559.25;5001023;28;20476;-83
2022/10/21 11:13:34;;;;;;;5.63;3.67;;;;;;;17.79;80.98;99554.25;5001331;28;20448;-84
2022/10/21 11:16:11;;;;;;;7.87;4.47;;;;;;;17.86;80.87;99558.66;5001747;28;20844;-83
2022/10/21 11:18:43;;;;;;;7.20;3.33;;;;;;;17.76;81.09;99560.03;5002848;28;20514;-83
2022/10/21 11:21:32;;;;;;;10.77;3.90;;;;;;;17.59;81.61;99555.03;5001639;28;20514;-83
2022/10/21 11:24:09;;;;;;;8.13;3.90;;;;;;;17.47;82.43;99564.75;5000903;28;20463;-84